Time;durP1;ratioP1;P1;durP2;ratioP2;P2;SDS_P1;SDS_P2;PMS_P1;PMS_P2;Temp;Humidity;BMP_temperature;BMP_pressure;BME280_temperature;BME280_humidity;BME280_pressure;Samples;Min_cycle;Max_cycle;Signal;HPM_P1;HPM_P2
2021/07/11 06:33:18;;;;;;;4.55;2.50;;;28.70;99.90;;;;;;5015918;23;20608;-78
2021/07/11 06:35:45;;;;;;;4.28;2.83;;;28.10;99.90;;;;;;4996896;28;20234;-79
2021/07/11 06:38:12;;;;;;;5.53;2.72;;;28.00;99.90;;;;;;4997323;28;20213;-80
2021/07/11 06:40:38;;;;;;;6.00;3.17;;;27.60;99.90;;;;;;4997319;28;20222;-79
2021/07/11 06:43:05;;;;;;;4.72;2.63;;;27.10;99.90;;;;;;4997164;28;20202;-80
2021/07/11 06:45:32;;;;;;;4.40;3.15;;;26.50;99.90;;;;;;4997073;28;20206;-80
2021/07/11 06:47:59;;;;;;;5.13;3.00;;;25.60;99.90;;;;;;4996372;28;20211;-76
2021/07/11 06:50:27;;;;;;;6.30;3.53;;;24.40;99.90;;;;;;4996350;28;20723;-76
2021/07/11 06:52:54;;;;;;;5.45;3.38;;;23.80;99.90;;;;;;4997159;28;20211;-77
2021/07/11 06:55:21;;;;;;;6.15;3.28;;;23.20;99.90;;;;;;4996680;28;20234;-77
2021/07/11 06:57:47;;;;;;;5.28;3.03;;;22.90;99.90;;;;;;4997102;28;20673;-77
2021/07/11 07:00:15;;;;;;;4.30;2.72;;;22.50;99.90;;;;;;4995568;28;20226;-76
2021/07/11 07:02:43;;;;;;;5.68;2.42;;;22.30;99.90;;;;;;4997860;28;20206;-77
2021/07/11 07:05:11;;;;;;;3.35;2.15;;;22.30;99.90;;;;;;5000346;28;20202;-78
2021/07/11 07:07:40;;;;;;;5.38;2.97;;;22.00;99.90;;;;;;4997094;28;20210;-76
2021/07/11 07:10:09;;;;;;;3.95;2.17;;;22.10;99.90;;;;;;4996665;28;20651;-78
2021/07/11 07:12:36;;;;;;;3.78;2.70;;;22.10;99.90;;;;;;4996084;28;20242;-78
2021/07/11 07:15:04;;;;;;;5.05;3.13;;;21.90;99.90;;;;;;4996645;28;20570;-78
2021/07/11 07:17:31;;;;;;;4.32;2.78;;;21.70;99.90;;;;;;4996351;28;20213;-78
2021/07/11 07:19:57;;;;;;;4.07;2.80;;;21.70;99.90;;;;;;4997109;28;20226;-78
2021/07/11 07:22:24;;;;;;;4.72;2.78;;;21.50;99.90;;;;;;4996449;28;20217;-78
2021/07/11 07:24:52;;;;;;;4.75;2.70;;;21.20;99.90;;;;;;4996597;28;20677;-76
2021/07/11 07:27:19;;;;;;;3.80;2.70;;;21.00;99.90;;;;;;4996493;28;20546;-78
2021/07/11 07:29:46;;;;;;;5.40;2.55;;;21.80;99.90;;;;;;4996270;28;20234;-79
2021/07/11 07:32:13;;;;;;;2.80;2.10;;;23.00;99.90;;;;;;4995964;28;20217;-79
2021/07/11 07:34:41;;;;;;;3.95;2.40;;;24.10;99.90;;;;;;4996520;28;20612;-77
2021/07/11 07:37:08;;;;;;;4.13;2.58;;;23.60;99.90;;;;;;4982388;28;20293;-76
2021/07/11 07:39:35;;;;;;;3.85;2.63;;;23.20;99.90;;;;;;4996464;28;20242;-79
2021/07/11 07:42:03;;;;;;;4.03;2.80;;;22.50;99.90;;;;;;4996226;28;20217;-78
2021/07/11 07:44:31;;;;;;;3.42;2.53;;;22.00;99.90;;;;;;4992371;28;20213;-77
2021/07/11 07:46:57;;;;;;;5.70;2.80;;;21.80;99.90;;;;;;4995525;28;20210;-77
2021/07/11 07:49:24;;;;;;;5.72;3.00;;;21.70;99.90;;;;;;4995137;28;20713;-77
2021/07/11 07:51:51;;;;;;;3.67;2.70;;;21.60;99.90;;;;;;4995755;28;20199;-77
2021/07/11 07:54:18;;;;;;;3.80;2.90;;;21.40;99.90;;;;;;4995628;28;20230;-76
2021/07/11 07:56:45;;;;;;;4.20;2.83;;;21.40;99.90;;;;;;4995653;28;20214;-76
2021/07/11 07:59:13;;;;;;;4.45;2.78;;;21.30;99.90;;;;;;4995522;28;20226;-76
2021/07/11 08:01:41;;;;;;;5.80;2.75;;;21.30;99.90;;;;;;4995288;28;20211;-77
2021/07/11 08:04:07;;;;;;;3.22;2.20;;;21.20;99.90;;;;;;4995037;28;20229;-75
2021/07/11 08:06:35;;;;;;;5.75;2.65;;;21.40;99.90;;;;;;4995419;28;20207;-76
2021/07/11 08:09:02;;;;;;;3.28;2.60;;;21.10;99.90;;;;;;4994767;28;20230;-76
2021/07/11 08:11:30;;;;;;;4.63;2.40;;;21.40;99.90;;;;;;4996943;28;20206;-75
2021/07/11 08:13:57;;;;;;;2.92;2.10;;;21.80;99.90;;;;;;4994810;28;20210;-77
2021/07/11 08:16:26;;;;;;;3.55;2.65;;;21.70;99.90;;;;;;4995296;28;20560;-75
2021/07/11 08:18:53;;;;;;;2.45;1.90;;;21.70;99.90;;;;;;4995084;28;20238;-75
2021/07/11 08:21:21;;;;;;;3.03;2.17;;;22.60;99.90;;;;;;4994869;28;20210;-75
2021/07/11 08:23:48;;;;;;;2.50;1.60;;;24.20;99.90;;;;;;4995239;28;20206;-77
2021/07/11 08:26:15;;;;;;;3.03;1.85;;;25.30;99.90;;;;;;4995088;28;20214;-78
2021/07/11 08:28:42;;;;;;;2.45;1.48;;;25.20;99.90;;;;;;4995288;28;20704;-80
2021/07/11 08:31:12;;;;;;;2.03;1.60;;;25.00;99.90;;;;;;4999589;28;20202;-87
2021/07/11 08:33:52;;;;;;;2.40;1.60;;;24.60;99.90;;;;;;5006041;28;20214;-81
2021/07/11 08:36:19;;;;;;;4.22;2.05;;;24.10;99.90;;;;;;5008823;28;20294;-81
2021/07/11 08:38:49;;;;;;;2.47;1.70;;;23.40;99.90;;;;;;5005967;28;20234;-78
2021/07/11 08:41:16;;;;;;;2.63;1.55;;;23.00;99.90;;;;;;5001409;28;20206;-72
2021/07/11 08:43:45;;;;;;;3.10;1.70;;;22.60;99.90;;;;;;5000454;28;20206;-78
2021/07/11 08:46:12;;;;;;;3.42;2.03;;;22.20;99.90;;;;;;5001579;28;20218;-74
2021/07/11 08:48:40;;;;;;;3.55;2.08;;;21.70;99.90;;;;;;5009774;28;20209;-77
2021/07/11 08:51:27;;;;;;;4.00;2.30;;;21.50;99.90;;;;;;5006966;28;20238;-76
2021/07/11 08:53:54;;;;;;;2.65;1.85;;;22.10;99.90;;;;;;5006908;28;20202;-76
2021/07/11 08:56:25;;;;;;;4.35;2.30;;;22.40;99.90;;;;;;5004395;28;20241;-76
2021/07/11 08:58:54;;;;;;;2.60;1.83;;;22.40;99.90;;;;;;4986704;28;20242;-77
2021/07/11 09:01:23;;;;;;;2.88;1.95;;;22.20;99.90;;;;;;5008529;28;20202;-76
2021/07/11 09:04:05;;;;;;;3.42;2.30;;;22.50;99.90;;;;;;5002122;28;20210;-76
2021/07/11 09:06:49;;;;;;;4.00;2.40;;;22.40;99.90;;;;;;5006339;28;20744;-77
2021/07/11 09:09:24;;;;;;;4.50;2.47;;;22.10;99.90;;;;;;5003250;28;20634;-78
2021/07/11 09:11:53;;;;;;;4.28;2.88;;;22.00;99.90;;;;;;4996269;28;20284;-77
2021/07/11 09:14:23;;;;;;;3.25;2.22;;;22.00;99.90;;;;;;4993978;28;20276;-88
2021/07/11 09:16:50;;;;;;;2.85;2.40;;;22.10;99.90;;;;;;4994260;28;20218;-78
2021/07/11 09:19:22;;;;;;;4.45;2.70;;;22.20;99.90;;;;;;4988940;28;20312;-80
2021/07/11 09:21:56;;;;;;;3.63;2.55;;;22.40;99.90;;;;;;4996472;28;20297;-82
2021/07/11 09:24:24;;;;;;;4.82;2.80;;;22.40;99.90;;;;;;4995073;28;20205;-78
2021/07/11 09:26:51;;;;;;;9.23;3.47;;;22.30;99.90;;;;;;4996333;28;20241;-80
2021/07/11 09:29:29;;;;;;;3.95;2.50;;;22.30;99.90;;;;;;4997473;28;20309;-79
2021/07/11 09:31:56;;;;;;;4.18;2.40;;;22.40;99.90;;;;;;4995950;28;20649;-79
2021/07/11 09:34:24;;;;;;;4.68;2.90;;;22.30;99.90;;;;;;4999012;28;20392;-77
2021/07/11 09:37:14;;;;;;;3.72;2.58;;;22.60;99.90;;;;;;5000170;28;20209;-78
2021/07/11 09:39:51;;;;;;;4.95;2.88;;;22.90;99.90;;;;;;5010502;28;20231;-79
2021/07/11 09:42:33;;;;;;;3.75;2.65;;;23.20;99.90;;;;;;5016430;28;20190;-78
2021/07/11 09:45:01;;;;;;;3.38;2.47;;;23.00;99.90;;;;;;5014803;28;20202;-78
2021/07/11 09:47:30;;;;;;;4.30;2.55;;;23.00;99.90;;;;;;5006960;28;20293;-78
2021/07/11 09:50:18;;;;;;;4.07;2.60;;;23.20;99.90;;;;;;4998366;28;20269;-78
2021/07/11 09:52:49;;;;;;;6.78;2.53;;;23.20;99.90;;;;;;4996739;28;20265;-79
2021/07/11 09:55:19;;;;;;;3.88;2.40;;;23.40;99.90;;;;;;4996026;28;20230;-78
2021/07/11 09:57:48;;;;;;;4.13;2.38;;;23.30;99.90;;;;;;4995944;28;20285;-80
2021/07/11 10:00:19;;;;;;;3.70;2.50;;;23.20;99.90;;;;;;4995927;28;20226;-80
2021/07/11 10:02:48;;;;;;;2.75;2.00;;;23.10;99.90;;;;;;4996802;28;20246;-80
2021/07/11 10:05:16;;;;;;;2.80;2.25;;;22.90;99.90;;;;;;4996322;28;20214;-80
2021/07/11 10:07:48;;;;;;;3.97;2.30;;;22.60;99.90;;;;;;4996912;28;20210;-80
2021/07/11 10:10:17;;;;;;;4.18;2.55;;;22.60;99.90;;;;;;4995063;28;20226;-80
2021/07/11 10:12:45;;;;;;;2.55;2.08;;;22.60;99.90;;;;;;4994058;28;20207;-80
2021/07/11 10:15:15;;;;;;;3.53;2.33;;;22.60;99.90;;;;;;4995416;28;20233;-80
2021/07/11 10:17:49;;;;;;;3.45;2.30;;;22.90;99.90;;;;;;4996686;28;20203;-81
2021/07/11 10:20:19;;;;;;;3.53;2.50;;;23.30;99.90;;;;;;4995292;28;20700;-80
2021/07/11 10:22:50;;;;;;;3.35;2.30;;;23.70;99.90;;;;;;4996361;28;20207;-79
2021/07/11 10:25:19;;;;;;;6.60;2.17;;;23.90;99.90;;;;;;4998840;28;20210;-80
2021/07/11 10:27:47;;;;;;;3.30;2.13;;;23.90;99.90;;;;;;4998763;28;20210;-80
2021/07/11 10:30:17;;;;;;;3.13;1.70;;;24.20;99.90;;;;;;5000694;28;20230;-80
2021/07/11 10:32:44;;;;;;;3.92;1.70;;;24.10;99.90;;;;;;5001198;28;20217;-80
2021/07/11 10:35:17;;;;;;;2.50;1.50;;;24.30;99.90;;;;;;4995644;28;20325;-80
2021/07/11 10:37:50;;;;;;;3.72;1.65;;;24.20;99.90;;;;;;4995775;28;20206;-80
2021/07/11 10:40:20;;;;;;;2.08;1.33;;;24.00;99.90;;;;;;4994995;28;20237;-80
2021/07/11 10:42:49;;;;;;;3.47;1.27;;;23.80;99.90;;;;;;4996599;28;20217;-79
2021/07/11 10:45:17;;;;;;;1.25;1.00;;;23.70;99.90;;;;;;4996344;28;20210;-80
2021/07/11 10:47:44;;;;;;;1.58;1.42;;;23.90;99.90;;;;;;4997265;28;20208;-80
2021/07/11 10:50:28;;;;;;;1.30;1.10;;;24.20;99.90;;;;;;4998864;28;20329;-80
2021/07/11 10:52:57;;;;;;;2.72;1.05;;;24.30;99.90;;;;;;4998765;28;20208;-81
2021/07/11 10:55:34;;;;;;;1.45;1.17;;;24.40;99.90;;;;;;4999618;28;20231;-79
2021/07/11 10:58:11;;;;;;;2.50;1.05;;;24.40;99.90;;;;;;4998894;28;20208;-80
2021/07/11 11:00:38;;;;;;;1.20;0.77;;;24.40;99.90;;;;;;4999002;28;20230;-80
2021/07/11 11:03:16;;;;;;;1.67;1.17;;;24.50;99.90;;;;;;4999168;28;20221;-80
2021/07/11 11:05:43;;;;;;;2.03;0.70;;;24.20;99.90;;;;;;4998868;28;20210;-80
2021/07/11 11:08:14;;;;;;;1.40;0.90;;;23.90;99.90;;;;;;4998685;28;20207;-80
2021/07/11 11:10:42;;;;;;;1.30;0.63;;;23.70;99.90;;;;;;4997888;28;20589;-80
2021/07/11 11:13:12;;;;;;;1.10;0.93;;;23.80;99.90;;;;;;4999436;28;20576;-81
2021/07/11 11:15:45;;;;;;;1.00;0.90;;;24.00;99.90;;;;;;4998584;28;20260;-79
2021/07/11 11:18:27;;;;;;;1.00;0.70;;;24.20;99.90;;;;;;4997719;28;20300;-80
2021/07/11 11:21:01;;;;;;;1.05;0.80;;;24.20;99.90;;;;;;4996883;28;20216;-79
2021/07/11 11:23:33;;;;;;;0.82;0.60;;;24.10;99.90;;;;;;4997320;28;20543;-80
2021/07/11 11:26:00;;;;;;;0.80;0.77;;;24.00;99.90;;;;;;4997699;28;20677;-80
2021/07/11 11:28:29;;;;;;;1.70;0.70;;;23.90;99.90;;;;;;4997876;28;20206;-79
2021/07/11 11:31:12;;;;;;;0.98;0.82;;;23.70;99.90;;;;;;4996965;28;20213;-80
2021/07/11 11:33:58;;;;;;;1.13;0.70;;;23.50;99.90;;;;;;4997327;28;20210;-80
2021/07/11 11:36:29;;;;;;;1.50;1.00;;;23.30;99.90;;;;;;4997175;28;20230;-80
2021/07/11 11:38:58;;;;;;;1.80;0.77;;;23.10;99.90;;;;;;4997291;28;20238;-80
2021/07/11 11:41:26;;;;;;;0.82;0.70;;;22.90;99.90;;;;;;4997728;28;20680;-80
2021/07/11 11:43:53;;;;;;;1.33;0.82;;;22.80;99.90;;;;;;4997898;28;20206;-80
2021/07/11 11:46:28;;;;;;;0.90;0.70;;;22.80;99.90;;;;;;5001423;28;20214;-80
2021/07/11 11:48:59;;;;;;;1.02;0.63;;;23.00;99.90;;;;;;5004479;28;20232;-79
2021/07/11 11:51:27;;;;;;;0.95;0.70;;;22.90;99.90;;;;;;4998792;28;20301;-79
2021/07/11 11:53:54;;;;;;;1.13;0.70;;;23.10;99.90;;;;;;5000992;28;20217;-80
2021/07/11 11:56:22;;;;;;;0.95;0.68;;;23.20;99.90;;;;;;4999087;28;20248;-79
2021/07/11 11:58:49;;;;;;;0.70;0.60;;;23.20;99.90;;;;;;4996169;28;20226;-79
2021/07/11 12:01:17;;;;;;;0.70;0.70;;;23.30;99.90;;;;;;4998914;28;20210;-79
2021/07/11 12:03:45;;;;;;;0.90;0.70;;;23.60;99.90;;;;;;4995884;28;20210;-80
2021/07/11 12:06:15;;;;;;;0.93;0.70;;;24.00;99.90;;;;;;4995808;28;20206;-80
2021/07/11 12:08:43;;;;;;;1.50;0.50;;;24.20;99.90;;;;;;4998716;28;20226;-81
2021/07/11 12:11:12;;;;;;;0.63;0.50;;;24.20;99.90;;;;;;5001041;28;20218;-80
2021/07/11 12:13:41;;;;;;;1.48;0.60;;;24.30;99.90;;;;;;4996948;28;20297;-80
2021/07/11 12:16:11;;;;;;;1.83;1.20;;;24.00;99.90;;;;;;4998053;28;20238;-81
2021/07/11 12:18:42;;;;;;;0.80;0.70;;;23.80;99.90;;;;;;4997209;28;20238;-80
2021/07/11 12:21:09;;;;;;;0.60;0.60;;;23.70;99.90;;;;;;4999020;28;20207;-80
2021/07/11 12:23:36;;;;;;;0.60;0.60;;;23.70;99.90;;;;;;4996788;28;20217;-80
2021/07/11 12:26:06;;;;;;;1.02;0.65;;;23.60;99.90;;;;;;4996834;28;20214;-80
2021/07/11 12:31:07;;;;;;;1.17;0.57;;;23.60;99.90;;;;;;4993841;28;20225;-81
2021/07/11 12:33:37;;;;;;;0.98;0.60;;;23.70;99.90;;;;;;4994477;28;20229;-83
2021/07/11 12:36:05;;;;;;;0.80;0.68;;;23.80;99.90;;;;;;4994692;28;20719;-83
2021/07/11 12:38:33;;;;;;;0.90;0.70;;;24.00;99.90;;;;;;4994797;28;20207;-83
2021/07/11 12:41:01;;;;;;;1.00;0.70;;;23.90;99.90;;;;;;4995097;28;20215;-83
2021/07/11 12:43:32;;;;;;;0.85;0.70;;;23.90;99.90;;;;;;4994900;28;20206;-82
2021/07/11 12:46:01;;;;;;;0.82;0.50;;;23.90;99.90;;;;;;4995099;28;20582;-80
2021/07/11 12:48:41;;;;;;;1.02;0.65;;;24.00;99.90;;;;;;4994761;28;20207;-82
2021/07/11 12:51:21;;;;;;;0.90;0.60;;;24.20;99.90;;;;;;4995162;28;20229;-82
2021/07/11 12:53:52;;;;;;;1.85;0.80;;;24.60;99.90;;;;;;4994499;28;20206;-82
2021/07/11 12:56:21;;;;;;;1.00;0.50;;;24.30;99.90;;;;;;4994267;28;20238;-82
2021/07/11 12:58:48;;;;;;;1.33;0.70;;;24.40;99.90;;;;;;4994769;28;20226;-83
2021/07/11 13:01:16;;;;;;;0.95;0.68;;;24.40;99.90;;;;;;4994298;28;20217;-81
2021/07/11 13:03:45;;;;;;;1.10;0.65;;;24.30;99.90;;;;;;4994227;28;20202;-83
2021/07/11 13:06:14;;;;;;;0.90;0.80;;;24.40;99.90;;;;;;4994543;28;20206;-81
2021/07/11 13:08:43;;;;;;;1.02;0.73;;;24.40;99.90;;;;;;4994337;28;20237;-81
2021/07/11 13:11:10;;;;;;;1.02;0.60;;;24.50;99.90;;;;;;4993756;28;20210;-81
2021/07/11 13:13:38;;;;;;;1.00;0.65;;;24.40;99.90;;;;;;4994203;28;20202;-82
2021/07/11 13:16:05;;;;;;;0.73;0.65;;;24.20;99.90;;;;;;4994004;28;20237;-84
2021/07/11 13:18:32;;;;;;;0.98;0.60;;;24.40;99.90;;;;;;4993843;28;20252;-80
2021/07/11 13:21:00;;;;;;;1.33;0.70;;;24.70;99.90;;;;;;4993975;28;20206;-81
2021/07/11 13:23:27;;;;;;;4.72;0.60;;;24.80;99.90;;;;;;4994135;28;20221;-83
2021/07/11 13:25:54;;;;;;;0.88;0.70;;;24.80;99.90;;;;;;4994187;28;20293;-82
2021/07/11 13:28:21;;;;;;;1.10;0.57;;;24.90;99.90;;;;;;4994693;28;20210;-81
2021/07/11 13:30:48;;;;;;;0.60;0.50;;;25.00;99.90;;;;;;4993605;28;20213;-81
2021/07/11 13:33:15;;;;;;;1.05;0.77;;;25.00;99.90;;;;;;4993643;28;20202;-81
2021/07/11 13:35:43;;;;;;;0.77;0.50;;;25.20;99.90;;;;;;4993838;28;20222;-79
2021/07/11 13:38:11;;;;;;;1.30;0.90;;;25.20;99.90;;;;;;4994123;28;20566;-80
2021/07/11 13:40:39;;;;;;;0.75;0.73;;;24.90;99.90;;;;;;4994268;28;20222;-81
2021/07/11 13:43:07;;;;;;;1.20;0.80;;;24.50;99.90;;;;;;4994168;28;20297;-83
2021/07/11 13:45:36;;;;;;;1.17;0.70;;;24.20;99.90;;;;;;4993958;28;20257;-79
2021/07/11 13:48:03;;;;;;;0.57;0.50;;;23.90;99.90;;;;;;4993993;28;20211;-81
2021/07/11 13:50:30;;;;;;;0.80;0.60;;;23.70;99.90;;;;;;4993457;28;20234;-80
2021/07/11 13:52:56;;;;;;;0.57;0.50;;;23.60;99.90;;;;;;4994935;28;20233;-82
2021/07/11 13:55:24;;;;;;;1.05;0.93;;;23.60;99.90;;;;;;4993667;28;20202;-80
2021/07/11 13:57:51;;;;;;;0.80;0.63;;;23.50;99.90;;;;;;4993645;28;20592;-81
2021/07/11 14:00:20;;;;;;;0.77;0.52;;;23.40;99.90;;;;;;4993394;28;20229;-79
2021/07/11 14:02:48;;;;;;;0.82;0.60;;;23.40;99.90;;;;;;4993737;28;20546;-80
2021/07/11 14:05:16;;;;;;;0.93;0.50;;;23.30;99.90;;;;;;4993695;28;20206;-82
2021/07/11 14:07:43;;;;;;;1.48;0.60;;;23.20;99.90;;;;;;4993325;28;20267;-80
2021/07/11 14:10:11;;;;;;;0.70;0.52;;;23.00;99.90;;;;;;4993236;28;20318;-81
2021/07/11 14:12:39;;;;;;;1.02;0.70;;;23.10;99.90;;;;;;4993847;28;20661;-82
2021/07/11 14:15:10;;;;;;;0.73;0.50;;;23.10;99.90;;;;;;4993480;28;20687;-81
2021/07/11 14:17:37;;;;;;;0.70;0.50;;;23.00;99.90;;;;;;4993867;28;20323;-82
2021/07/11 14:20:05;;;;;;;0.60;0.50;;;22.80;99.90;;;;;;4993851;28;20697;-80
2021/07/11 14:22:32;;;;;;;1.33;0.60;;;22.80;99.90;;;;;;4994419;28;20236;-81
2021/07/11 14:25:00;;;;;;;0.70;0.55;;;22.80;99.90;;;;;;4997512;28;20557;-82
2021/07/11 14:27:27;;;;;;;0.80;0.60;;;22.80;99.90;;;;;;4997148;28;20216;-82
2021/07/11 14:29:55;;;;;;;0.73;0.50;;;23.00;99.90;;;;;;4997122;28;20732;-80
2021/07/11 14:32:22;;;;;;;0.95;0.60;;;23.10;99.90;;;;;;4997350;28;20657;-81
2021/07/11 14:34:49;;;;;;;0.60;0.60;;;23.20;99.90;;;;;;4997274;28;20214;-80
2021/07/11 14:37:16;;;;;;;1.30;0.70;;;23.10;99.90;;;;;;4996921;28;20238;-82
2021/07/11 14:39:42;;;;;;;1.08;0.68;;;23.10;99.90;;;;;;4996927;28;20226;-81
2021/07/11 14:42:10;;;;;;;1.05;0.80;;;23.00;99.90;;;;;;4996762;28;20687;-81
2021/07/11 14:44:37;;;;;;;0.70;0.70;;;23.20;99.90;;;;;;4997071;28;20234;-81
2021/07/11 14:47:06;;;;;;;0.63;0.60;;;23.30;99.90;;;;;;4996779;28;20218;-80
2021/07/11 14:49:33;;;;;;;0.65;0.52;;;23.30;99.90;;;;;;4996477;28;20226;-80
2021/07/11 14:52:00;;;;;;;1.20;0.80;;;23.30;99.90;;;;;;4997015;28;20213;-78
2021/07/11 14:54:27;;;;;;;1.10;0.70;;;23.30;99.90;;;;;;4996868;28;20209;-79
2021/07/11 14:56:53;;;;;;;2.65;0.80;;;23.30;99.90;;;;;;4996612;28;20237;-81
2021/07/11 14:59:20;;;;;;;1.02;0.60;;;23.50;99.90;;;;;;4996567;28;20236;-80
2021/07/11 15:01:47;;;;;;;2.80;0.88;;;23.60;99.90;;;;;;4996624;28;20213;-79
2021/07/11 15:04:15;;;;;;;1.20;0.65;;;23.80;99.90;;;;;;4997019;28;20297;-80
2021/07/11 15:06:42;;;;;;;2.45;0.70;;;23.80;99.90;;;;;;4996416;28;20707;-79
2021/07/11 15:09:09;;;;;;;0.95;0.70;;;23.70;99.90;;;;;;4996488;28;20226;-81
2021/07/11 15:11:36;;;;;;;1.05;0.70;;;23.60;99.90;;;;;;4996414;28;20210;-81
2021/07/11 15:14:03;;;;;;;1.15;0.55;;;23.60;99.90;;;;;;4996473;28;20217;-81
2021/07/11 15:16:29;;;;;;;0.77;0.55;;;23.80;99.90;;;;;;4996446;28;20218;-81
2021/07/11 15:18:56;;;;;;;0.68;0.60;;;23.90;99.90;;;;;;4996106;28;20236;-80
2021/07/11 15:21:25;;;;;;;0.82;0.65;;;23.80;99.90;;;;;;4996177;28;20653;-80
2021/07/11 15:23:51;;;;;;;0.65;0.60;;;23.60;99.90;;;;;;4996115;28;20672;-80
2021/07/11 15:26:18;;;;;;;1.95;0.60;;;23.50;99.90;;;;;;4996119;28;20206;-80
2021/07/11 15:28:45;;;;;;;0.50;0.50;;;23.80;99.90;;;;;;4995983;28;20222;-80
2021/07/11 15:31:12;;;;;;;1.40;0.80;;;23.80;99.90;;;;;;4995995;28;20673;-80
2021/07/11 15:33:39;;;;;;;0.98;0.70;;;24.00;99.90;;;;;;4995534;28;20202;-81
2021/07/11 15:36:06;;;;;;;1.38;0.80;;;24.10;99.90;;;;;;4995901;28;20207;-80
2021/07/11 15:38:34;;;;;;;1.20;0.93;;;24.20;99.90;;;;;;4995945;28;20321;-80
2021/07/11 15:41:01;;;;;;;0.98;0.80;;;24.20;99.90;;;;;;4996099;28;20207;-82
2021/07/11 15:43:28;;;;;;;2.05;0.70;;;24.20;99.90;;;;;;4995786;28;20206;-81
2021/07/11 15:45:55;;;;;;;0.90;0.80;;;24.10;99.90;;;;;;4995433;28;20249;-79
2021/07/11 15:48:22;;;;;;;0.60;0.50;;;24.00;99.90;;;;;;4995724;28;20216;-80
2021/07/11 15:50:50;;;;;;;1.10;0.65;;;23.90;99.90;;;;;;4995819;28;20209;-81
2021/07/11 15:53:18;;;;;;;1.70;0.77;;;23.90;99.90;;;;;;4995797;28;20206;-81
2021/07/11 15:55:48;;;;;;;1.00;0.80;;;23.90;99.90;;;;;;4995643;28;20206;-82
2021/07/11 15:58:15;;;;;;;0.85;0.60;;;23.90;99.90;;;;;;4995369;28;20233;-82
2021/07/11 16:00:42;;;;;;;0.90;0.70;;;23.70;99.90;;;;;;4995842;28;20238;-82
2021/07/11 16:03:10;;;;;;;1.10;0.90;;;23.70;99.90;;;;;;4995370;28;20207;-81
2021/07/11 16:05:37;;;;;;;0.77;0.68;;;23.70;99.90;;;;;;4995624;28;20236;-82
2021/07/11 16:08:04;;;;;;;1.13;0.80;;;23.80;99.90;;;;;;4995548;28;20209;-81
2021/07/11 16:10:31;;;;;;;0.80;0.60;;;24.00;99.90;;;;;;4995415;28;20313;-82
2021/07/11 16:12:59;;;;;;;0.88;0.77;;;23.80;99.90;;;;;;4995505;28;20202;-83
2021/07/11 16:15:27;;;;;;;1.00;0.70;;;23.80;99.90;;;;;;4995351;28;20221;-82
2021/07/11 16:17:54;;;;;;;2.13;0.80;;;23.50;99.90;;;;;;4995247;28;20248;-81
2021/07/11 16:20:22;;;;;;;1.17;0.70;;;23.20;99.90;;;;;;4995325;28;20712;-82
2021/07/11 16:22:50;;;;;;;1.55;0.70;;;23.10;99.90;;;;;;4995127;28;20210;-79
2021/07/11 16:25:18;;;;;;;0.98;0.63;;;23.10;99.90;;;;;;4995085;28;20211;-80
2021/07/11 16:27:46;;;;;;;1.00;0.80;;;23.20;99.90;;;;;;4994767;28;20226;-79
2021/07/11 16:30:15;;;;;;;1.30;0.90;;;23.30;99.90;;;;;;4994855;28;20234;-79
2021/07/11 16:32:43;;;;;;;0.90;0.68;;;23.40;99.90;;;;;;4995127;28;20214;-84
2021/07/11 16:35:11;;;;;;;2.80;1.42;;;23.40;99.90;;;;;;4994786;28;20210;-82
2021/07/11 16:37:39;;;;;;;2.38;1.45;;;23.50;99.90;;;;;;4994812;28;20234;-82
2021/07/11 16:40:07;;;;;;;3.15;2.45;;;23.40;99.90;;;;;;4994715;28;20593;-81
2021/07/11 16:42:34;;;;;;;2.85;1.55;;;23.50;99.90;;;;;;4995107;28;20207;-81
2021/07/11 16:45:01;;;;;;;1.23;0.70;;;23.60;99.90;;;;;;4996229;28;20209;-81
2021/07/11 16:47:29;;;;;;;0.80;0.70;;;23.70;99.90;;;;;;4998998;28;20573;-79
2021/07/11 16:49:56;;;;;;;1.00;0.60;;;23.70;99.90;;;;;;4995930;28;20592;-81
2021/07/11 16:52:23;;;;;;;1.08;0.77;;;23.50;99.90;;;;;;4997220;28;20217;-81
2021/07/11 16:54:50;;;;;;;0.90;0.73;;;23.50;99.90;;;;;;4995835;28;20657;-80
2021/07/11 16:57:17;;;;;;;1.42;0.60;;;23.60;99.90;;;;;;4995910;28;20230;-81
2021/07/11 16:59:43;;;;;;;0.90;0.68;;;23.50;99.90;;;;;;4995525;28;20233;-80
2021/07/11 17:02:11;;;;;;;0.93;0.80;;;23.60;99.90;;;;;;4995060;28;20206;-81
2021/07/11 17:04:39;;;;;;;0.60;0.60;;;23.40;99.90;;;;;;4994363;28;20212;-80
2021/07/11 17:07:06;;;;;;;0.80;0.70;;;23.50;99.90;;;;;;4994494;28;20217;-81
2021/07/11 17:09:32;;;;;;;0.65;0.52;;;23.70;99.90;;;;;;4994302;28;20236;-81
2021/07/11 17:11:59;;;;;;;0.70;0.60;;;23.80;99.90;;;;;;4994283;28;20212;-81
2021/07/11 17:14:26;;;;;;;1.58;0.70;;;23.80;99.90;;;;;;4994125;28;20210;-80
2021/07/11 17:16:54;;;;;;;1.45;1.10;;;23.80;99.90;;;;;;4994070;28;20558;-81
2021/07/11 17:19:21;;;;;;;0.88;0.60;;;23.80;99.90;;;;;;4994073;28;20226;-81
2021/07/11 17:21:49;;;;;;;0.80;0.80;;;23.80;99.90;;;;;;4993789;28;20231;-81
2021/07/11 17:24:16;;;;;;;1.70;1.10;;;23.80;99.90;;;;;;4993856;28;20207;-80
2021/07/11 17:26:44;;;;;;;0.90;0.60;;;23.70;99.90;;;;;;4993913;28;20641;-81
2021/07/11 17:29:11;;;;;;;1.15;0.60;;;23.80;99.90;;;;;;4993774;28;20260;-80
2021/07/11 17:31:38;;;;;;;1.00;0.90;;;23.90;99.90;;;;;;4976396;28;20262;-81
2021/07/11 17:34:07;;;;;;;0.73;0.60;;;24.00;99.90;;;;;;4993627;28;20205;-81
2021/07/11 17:36:34;;;;;;;2.67;0.68;;;24.00;99.90;;;;;;4993815;28;20203;-81
2021/07/11 17:39:02;;;;;;;2.08;0.80;;;24.00;99.90;;;;;;4993814;28;20690;-81
2021/07/11 17:41:29;;;;;;;0.88;0.70;;;24.10;99.90;;;;;;4993875;28;20211;-81
2021/07/11 17:43:56;;;;;;;1.00;0.70;;;24.10;99.90;;;;;;4993958;28;20215;-80
2021/07/11 17:46:23;;;;;;;1.00;0.80;;;24.10;99.90;;;;;;4993749;28;20218;-80
2021/07/11 17:48:49;;;;;;;2.97;0.70;;;24.10;99.90;;;;;;4993362;28;20232;-83
2021/07/11 17:51:16;;;;;;;0.90;0.65;;;24.10;99.90;;;;;;4993513;28;20212;-81
2021/07/11 17:53:43;;;;;;;1.00;0.70;;;23.90;99.90;;;;;;4993753;28;20213;-81
2021/07/11 17:56:11;;;;;;;0.90;0.75;;;24.00;99.90;;;;;;4994035;28;20211;-82
2021/07/11 17:58:38;;;;;;;1.25;0.80;;;24.00;99.90;;;;;;4997495;28;20234;-81
2021/07/11 18:01:05;;;;;;;2.33;0.63;;;24.00;99.90;;;;;;4997769;28;20210;-82
2021/07/11 18:03:32;;;;;;;0.93;0.68;;;24.20;99.90;;;;;;4997923;28;20206;-80
2021/07/11 18:05:59;;;;;;;1.45;0.90;;;23.80;99.90;;;;;;4997592;28;20202;-84
2021/07/11 18:08:25;;;;;;;1.00;0.70;;;23.80;99.90;;;;;;4997676;28;20210;-82
2021/07/11 18:10:52;;;;;;;0.77;0.70;;;23.80;99.90;;;;;;4997587;28;20245;-82
2021/07/11 18:13:21;;;;;;;0.77;0.60;;;23.80;99.90;;;;;;4997357;28;20214;-81
2021/07/11 18:15:47;;;;;;;10.10;0.90;;;23.80;99.90;;;;;;4997064;28;20206;-81
2021/07/11 18:18:14;;;;;;;0.70;0.70;;;23.80;99.90;;;;;;4997079;28;20708;-82
2021/07/11 18:20:41;;;;;;;1.73;0.77;;;23.60;99.90;;;;;;4997242;28;20228;-83
2021/07/11 18:23:08;;;;;;;2.00;1.00;;;23.60;99.90;;;;;;4997440;28;20260;-81
2021/07/11 18:25:35;;;;;;;1.10;0.70;;;23.60;99.90;;;;;;4997223;28;20669;-81
2021/07/11 18:28:01;;;;;;;2.80;0.80;;;23.60;99.90;;;;;;4997266;28;20202;-82
2021/07/11 18:30:29;;;;;;;1.02;0.77;;;23.60;99.90;;;;;;4996797;28;20242;-81
2021/07/11 18:32:56;;;;;;;0.90;0.70;;;23.50;99.90;;;;;;4997428;28;20202;-84
2021/07/11 18:35:23;;;;;;;1.00;0.70;;;23.50;99.90;;;;;;4993766;28;20272;-80
2021/07/11 18:37:50;;;;;;;1.50;0.90;;;23.50;99.90;;;;;;4996062;28;20288;-79
2021/07/11 18:40:18;;;;;;;0.80;0.70;;;23.30;99.90;;;;;;4996406;28;20227;-79
2021/07/11 18:42:46;;;;;;;0.80;0.70;;;23.40;99.90;;;;;;4996650;28;20305;-79
2021/07/11 18:45:13;;;;;;;1.23;0.90;;;23.20;99.90;;;;;;4995947;28;20725;-80
2021/07/11 18:47:42;;;;;;;1.30;0.70;;;23.20;99.90;;;;;;4996577;28;20688;-79
2021/07/11 18:50:12;;;;;;;1.20;0.80;;;23.20;99.90;;;;;;4996309;28;20226;-81
2021/07/11 18:52:40;;;;;;;1.08;0.80;;;23.00;99.90;;;;;;4996621;28;20217;-80
2021/07/11 18:55:08;;;;;;;2.58;1.00;;;23.00;99.90;;;;;;4996522;28;20202;-80
2021/07/11 18:57:35;;;;;;;2.00;1.00;;;23.00;99.90;;;;;;4996316;28;20210;-80
2021/07/11 19:00:03;;;;;;;1.25;0.95;;;22.90;99.90;;;;;;4996341;28;20226;-81
2021/07/11 19:02:30;;;;;;;0.90;0.70;;;22.90;99.90;;;;;;4996251;28;20210;-78
2021/07/11 19:04:58;;;;;;;0.75;0.70;;;22.80;99.90;;;;;;4996076;28;20687;-78
2021/07/11 19:07:24;;;;;;;1.23;0.73;;;22.70;99.90;;;;;;4996603;28;20202;-77
2021/07/11 19:09:51;;;;;;;1.00;0.90;;;22.70;99.90;;;;;;4995519;28;20604;-78
2021/07/11 19:12:18;;;;;;;0.98;0.90;;;22.60;99.90;;;;;;4996186;28;20665;-78
2021/07/11 19:14:45;;;;;;;1.70;1.10;;;22.50;99.90;;;;;;4996543;28;20207;-78
2021/07/11 19:17:12;;;;;;;1.55;0.93;;;22.40;99.90;;;;;;4996359;28;20202;-78
2021/07/11 19:19:38;;;;;;;1.27;1.00;;;22.30;99.90;;;;;;4995974;28;20234;-78
2021/07/11 19:22:07;;;;;;;0.95;0.80;;;22.00;99.90;;;;;;4996147;28;20209;-78
2021/07/11 19:24:33;;;;;;;1.35;0.88;;;22.00;99.90;;;;;;4996096;28;20221;-78
2021/07/11 19:27:02;;;;;;;1.08;0.80;;;21.90;99.90;;;;;;4996345;28;20213;-78
2021/07/11 19:29:32;;;;;;;1.35;0.90;;;21.80;99.90;;;;;;4995937;28;20238;-77